Old Hickory, Arkansas
Current Conditions -  °F | °C
As of 11:53 AM on Sunday 21 Dec 2014 (Local Time) from KRUE Reporting Station
Overcast Overcast  
Wind Chill: 42°   Ceiling: 4900
Heat Index: 44°   Visibility: 10mi
Dew Point: 35°   Wind: 5mph
Humidity: 71%   Direction: NA
Pressure: 30.1"   Gusts: NA
Location:  35.2814°N, 92.791°W
Report Text: KRUE 211753Z AUTO VRB04KT 10SM OVC049 07/02 A3010 RMK AO2 SLP189 T00670017 10072 20044 58025
Loading
Personal Weather Stations






























Interactive Weather Map New forecast layout! Learn more

10-Day Weather Forecast

Advertisements
Track Severe Weather on mobile